CNA8 weather

CLOSED Winchester Airport
Winchester, Ontario, Canada

Public forecast

Using degrees Celsius for public forecast. Weather courtesy of forecast.io.

Closest aviation weather report (METAR) to Winchester Airport

Closest report is Massena International Richards Field, 20.5 nm (38.0 km) ESE. Retrieved 2020/06/01 05:53 UTC (54 minutes ago):

KMSS 010553Z AUTO 00000KT 10SM SCT075 SCT110 04/03 A3018 RMK AO2 SLP223 60000 T00390028 10106 20028 58002

Closest aviation forecast (TAF) to Winchester Airport

Closest forecast is Massena International Richards Field, 20.5 nm (38.0 km) ESE. Retrieved 2020/06/01 06:27 UTC (20 minutes ago):

TAF KMSS 010524Z 0106/0206 00000KT P6SM SCT080 FM011300 23007KT P6SM SCT080 FM011700 24009KT P6SM VCSH BKN050 FM020000 00000KT P6SM BKN080